Terminal Aerodrome Forecast
Issued by NWS

Home | Current Version | Previous Version | Text Only | Print | Product List | Glossary On
Versions: 1 2 3 4 5 6 7 8 9 10 11 12 13 14 15 16
000
FTUS43 KILX 231200 AAA
TAFBMI
TAF AMD
KBMI 231215Z 2312/2412 03016KT P6SM SCT010 BKN015
     FM231400 03014G22KT P6SM SCT015
     FM240200 05005KT P6SM SKC=

USA.gov is the U.S. government's official web portal to all federal, state and local government web resources and services.